sensor_id;sensor_type;location;lat;lon;timestamp;P1;durP1;ratioP1;P2;durP2;ratioP2
12852;SDS011;6495;51.808;7.478;2023-06-14T00:00:03;4.75;;;3.20;;
12852;SDS011;6495;51.808;7.478;2023-06-14T00:02:34;2.97;;;2.65;;
12852;SDS011;6495;51.808;7.478;2023-06-14T00:05:03;5.78;;;3.45;;
12852;SDS011;6495;51.808;7.478;2023-06-14T00:07:36;4.05;;;3.30;;
12852;SDS011;6495;51.808;7.478;2023-06-14T00:10:09;3.40;;;2.83;;
12852;SDS011;6495;51.808;7.478;2023-06-14T00:12:39;3.85;;;3.17;;
12852;SDS011;6495;51.808;7.478;2023-06-14T00:15:08;3.97;;;3.10;;
12852;SDS011;6495;51.808;7.478;2023-06-14T00:17:37;4.95;;;2.90;;
12852;SDS011;6495;51.808;7.478;2023-06-14T00:20:06;3.95;;;2.97;;
12852;SDS011;6495;51.808;7.478;2023-06-14T00:22:37;4.57;;;3.08;;
12852;SDS011;6495;51.808;7.478;2023-06-14T00:25:06;5.18;;;3.60;;
12852;SDS011;6495;51.808;7.478;2023-06-14T00:27:54;4.65;;;3.08;;
12852;SDS011;6495;51.808;7.478;2023-06-14T00:30:24;3.25;;;2.80;;
12852;SDS011;6495;51.808;7.478;2023-06-14T00:32:57;3.35;;;2.70;;
12852;SDS011;6495;51.808;7.478;2023-06-14T00:35:26;5.85;;;3.15;;
12852;SDS011;6495;51.808;7.478;2023-06-14T00:37:57;5.93;;;2.83;;
12852;SDS011;6495;51.808;7.478;2023-06-14T00:40:26;4.80;;;2.53;;
12852;SDS011;6495;51.808;7.478;2023-06-14T00:42:54;3.50;;;2.75;;
12852;SDS011;6495;51.808;7.478;2023-06-14T00:45:22;4.07;;;3.10;;
12852;SDS011;6495;51.808;7.478;2023-06-14T00:47:50;4.78;;;2.53;;
12852;SDS011;6495;51.808;7.478;2023-06-14T00:50:22;5.30;;;3.05;;
12852;SDS011;6495;51.808;7.478;2023-06-14T00:52:51;2.97;;;2.67;;
12852;SDS011;6495;51.808;7.478;2023-06-14T00:55:21;4.03;;;2.90;;
12852;SDS011;6495;51.808;7.478;2023-06-14T00:57:49;4.65;;;2.90;;
12852;SDS011;6495;51.808;7.478;2023-06-14T01:00:18;4.95;;;2.92;;
12852;SDS011;6495;51.808;7.478;2023-06-14T01:02:46;3.00;;;2.58;;
12852;SDS011;6495;51.808;7.478;2023-06-14T01:05:16;3.25;;;2.75;;
12852;SDS011;6495;51.808;7.478;2023-06-14T01:10:51;5.80;;;2.25;;
12852;SDS011;6495;51.808;7.478;2023-06-14T01:13:27;4.53;;;2.85;;
12852;SDS011;6495;51.808;7.478;2023-06-14T01:16:01;4.47;;;2.45;;
12852;SDS011;6495;51.808;7.478;2023-06-14T01:18:30;3.10;;;2.55;;
12852;SDS011;6495;51.808;7.478;2023-06-14T01:21:01;2.70;;;2.40;;
12852;SDS011;6495;51.808;7.478;2023-06-14T01:23:33;3.92;;;2.83;;
12852;SDS011;6495;51.808;7.478;2023-06-14T01:26:01;3.00;;;2.30;;
12852;SDS011;6495;51.808;7.478;2023-06-14T01:28:31;3.63;;;2.58;;
12852;SDS011;6495;51.808;7.478;2023-06-14T01:31:04;7.78;;;2.55;;
12852;SDS011;6495;51.808;7.478;2023-06-14T01:33:33;3.80;;;2.38;;
12852;SDS011;6495;51.808;7.478;2023-06-14T01:36:03;3.33;;;2.47;;
12852;SDS011;6495;51.808;7.478;2023-06-14T01:38:37;6.93;;;2.35;;
12852;SDS011;6495;51.808;7.478;2023-06-14T01:41:06;4.95;;;2.35;;
12852;SDS011;6495;51.808;7.478;2023-06-14T01:43:36;3.75;;;2.40;;
12852;SDS011;6495;51.808;7.478;2023-06-14T01:46:06;4.15;;;2.25;;
12852;SDS011;6495;51.808;7.478;2023-06-14T01:48:37;5.13;;;2.60;;
12852;SDS011;6495;51.808;7.478;2023-06-14T01:51:09;3.13;;;2.50;;
12852;SDS011;6495;51.808;7.478;2023-06-14T01:53:38;4.53;;;2.40;;
12852;SDS011;6495;51.808;7.478;2023-06-14T01:56:09;3.53;;;2.50;;
12852;SDS011;6495;51.808;7.478;2023-06-14T01:58:38;3.20;;;2.50;;
12852;SDS011;6495;51.808;7.478;2023-06-14T02:01:06;3.28;;;2.15;;
12852;SDS011;6495;51.808;7.478;2023-06-14T02:03:35;5.10;;;2.30;;
12852;SDS011;6495;51.808;7.478;2023-06-14T02:06:04;3.83;;;2.25;;
12852;SDS011;6495;51.808;7.478;2023-06-14T02:08:32;5.28;;;2.50;;
12852;SDS011;6495;51.808;7.478;2023-06-14T02:11:02;3.13;;;2.47;;
12852;SDS011;6495;51.808;7.478;2023-06-14T02:13:30;4.97;;;2.20;;
12852;SDS011;6495;51.808;7.478;2023-06-14T02:15:59;6.07;;;2.50;;
12852;SDS011;6495;51.808;7.478;2023-06-14T02:18:27;2.45;;;2.13;;
12852;SDS011;6495;51.808;7.478;2023-06-14T02:20:56;7.47;;;2.50;;
12852;SDS011;6495;51.808;7.478;2023-06-14T02:23:24;2.92;;;2.40;;
12852;SDS011;6495;51.808;7.478;2023-06-14T02:25:52;2.80;;;2.30;;
12852;SDS011;6495;51.808;7.478;2023-06-14T02:28:22;4.90;;;2.35;;
12852;SDS011;6495;51.808;7.478;2023-06-14T02:30:50;3.28;;;2.03;;
12852;SDS011;6495;51.808;7.478;2023-06-14T02:33:22;5.10;;;2.33;;
12852;SDS011;6495;51.808;7.478;2023-06-14T02:35:51;5.18;;;2.45;;
12852;SDS011;6495;51.808;7.478;2023-06-14T02:38:20;4.00;;;2.25;;
12852;SDS011;6495;51.808;7.478;2023-06-14T02:40:48;3.58;;;2.70;;
12852;SDS011;6495;51.808;7.478;2023-06-14T02:43:16;2.35;;;2.15;;
12852;SDS011;6495;51.808;7.478;2023-06-14T02:45:45;5.93;;;2.92;;
12852;SDS011;6495;51.808;7.478;2023-06-14T02:48:14;4.00;;;2.40;;
12852;SDS011;6495;51.808;7.478;2023-06-14T02:50:42;3.95;;;2.28;;
12852;SDS011;6495;51.808;7.478;2023-06-14T02:53:11;2.85;;;2.03;;
12852;SDS011;6495;51.808;7.478;2023-06-14T02:55:39;3.03;;;2.10;;
12852;SDS011;6495;51.808;7.478;2023-06-14T02:58:08;5.10;;;2.50;;
12852;SDS011;6495;51.808;7.478;2023-06-14T03:00:36;2.92;;;2.47;;
12852;SDS011;6495;51.808;7.478;2023-06-14T03:03:06;3.28;;;2.40;;
12852;SDS011;6495;51.808;7.478;2023-06-14T03:05:44;3.25;;;2.40;;
12852;SDS011;6495;51.808;7.478;2023-06-14T03:08:18;2.70;;;2.05;;
12852;SDS011;6495;51.808;7.478;2023-06-14T03:10:50;2.72;;;2.25;;
12852;SDS011;6495;51.808;7.478;2023-06-14T03:13:19;3.08;;;2.22;;
12852;SDS011;6495;51.808;7.478;2023-06-14T03:15:50;3.03;;;2.40;;
12852;SDS011;6495;51.808;7.478;2023-06-14T03:18:21;2.55;;;2.10;;
12852;SDS011;6495;51.808;7.478;2023-06-14T03:20:54;4.43;;;2.47;;
12852;SDS011;6495;51.808;7.478;2023-06-14T03:23:25;3.00;;;2.30;;
12852;SDS011;6495;51.808;7.478;2023-06-14T03:25:54;5.38;;;2.65;;
12852;SDS011;6495;51.808;7.478;2023-06-14T03:28:22;3.25;;;2.50;;
12852;SDS011;6495;51.808;7.478;2023-06-14T03:30:51;4.88;;;2.67;;
12852;SDS011;6495;51.808;7.478;2023-06-14T03:33:22;4.57;;;2.58;;
12852;SDS011;6495;51.808;7.478;2023-06-14T03:35:52;2.75;;;2.35;;
12852;SDS011;6495;51.808;7.478;2023-06-14T03:38:20;3.85;;;2.45;;
12852;SDS011;6495;51.808;7.478;2023-06-14T03:40:50;4.50;;;2.33;;
12852;SDS011;6495;51.808;7.478;2023-06-14T03:43:18;4.18;;;2.30;;
12852;SDS011;6495;51.808;7.478;2023-06-14T03:45:46;2.75;;;2.17;;
12852;SDS011;6495;51.808;7.478;2023-06-14T03:48:14;5.53;;;2.25;;
12852;SDS011;6495;51.808;7.478;2023-06-14T03:50:44;3.83;;;2.25;;
12852;SDS011;6495;51.808;7.478;2023-06-14T03:53:12;2.75;;;2.38;;
12852;SDS011;6495;51.808;7.478;2023-06-14T03:55:44;4.80;;;2.40;;
12852;SDS011;6495;51.808;7.478;2023-06-14T03:58:15;3.20;;;2.33;;
12852;SDS011;6495;51.808;7.478;2023-06-14T04:00:44;3.17;;;2.30;;
12852;SDS011;6495;51.808;7.478;2023-06-14T04:03:13;2.35;;;2.15;;
12852;SDS011;6495;51.808;7.478;2023-06-14T04:05:43;10.02;;;3.13;;
12852;SDS011;6495;51.808;7.478;2023-06-14T04:08:17;7.03;;;2.30;;
12852;SDS011;6495;51.808;7.478;2023-06-14T04:10:45;3.47;;;2.33;;
12852;SDS011;6495;51.808;7.478;2023-06-14T04:13:14;3.85;;;2.08;;
12852;SDS011;6495;51.808;7.478;2023-06-14T04:15:42;5.47;;;2.50;;
12852;SDS011;6495;51.808;7.478;2023-06-14T04:18:20;3.67;;;2.63;;
12852;SDS011;6495;51.808;7.478;2023-06-14T04:20:51;3.92;;;2.53;;
12852;SDS011;6495;51.808;7.478;2023-06-14T04:23:20;5.20;;;2.40;;
12852;SDS011;6495;51.808;7.478;2023-06-14T04:25:49;5.82;;;2.58;;
12852;SDS011;6495;51.808;7.478;2023-06-14T04:28:18;4.10;;;2.65;;
12852;SDS011;6495;51.808;7.478;2023-06-14T04:30:46;11.13;;;3.13;;
12852;SDS011;6495;51.808;7.478;2023-06-14T04:33:18;5.30;;;2.80;;
12852;SDS011;6495;51.808;7.478;2023-06-14T04:35:47;4.07;;;2.42;;
12852;SDS011;6495;51.808;7.478;2023-06-14T04:38:19;4.28;;;2.97;;
12852;SDS011;6495;51.808;7.478;2023-06-14T04:40:52;6.75;;;2.70;;
12852;SDS011;6495;51.808;7.478;2023-06-14T04:43:22;3.97;;;2.30;;
12852;SDS011;6495;51.808;7.478;2023-06-14T04:45:52;4.38;;;2.38;;
12852;SDS011;6495;51.808;7.478;2023-06-14T04:48:23;3.75;;;2.58;;
12852;SDS011;6495;51.808;7.478;2023-06-14T04:50:51;2.50;;;2.13;;
12852;SDS011;6495;51.808;7.478;2023-06-14T04:53:21;3.10;;;2.20;;
12852;SDS011;6495;51.808;7.478;2023-06-14T04:55:53;4.85;;;2.25;;
12852;SDS011;6495;51.808;7.478;2023-06-14T04:58:22;3.58;;;2.40;;
12852;SDS011;6495;51.808;7.478;2023-06-14T05:00:51;2.85;;;2.30;;
12852;SDS011;6495;51.808;7.478;2023-06-14T05:03:19;7.45;;;2.67;;
12852;SDS011;6495;51.808;7.478;2023-06-14T05:05:48;3.10;;;2.55;;
12852;SDS011;6495;51.808;7.478;2023-06-14T05:08:16;7.22;;;2.30;;
12852;SDS011;6495;51.808;7.478;2023-06-14T05:10:47;2.88;;;2.58;;
12852;SDS011;6495;51.808;7.478;2023-06-14T05:13:15;3.10;;;2.25;;
12852;SDS011;6495;51.808;7.478;2023-06-14T05:15:45;3.45;;;2.28;;
12852;SDS011;6495;51.808;7.478;2023-06-14T05:18:13;3.13;;;2.40;;
12852;SDS011;6495;51.808;7.478;2023-06-14T05:20:42;6.82;;;2.60;;
12852;SDS011;6495;51.808;7.478;2023-06-14T05:23:10;6.50;;;2.50;;
12852;SDS011;6495;51.808;7.478;2023-06-14T05:25:42;2.97;;;2.15;;
12852;SDS011;6495;51.808;7.478;2023-06-14T05:28:13;4.75;;;2.60;;
12852;SDS011;6495;51.808;7.478;2023-06-14T05:30:41;4.13;;;2.67;;
12852;SDS011;6495;51.808;7.478;2023-06-14T05:33:09;3.15;;;2.25;;
12852;SDS011;6495;51.808;7.478;2023-06-14T05:35:38;4.82;;;2.58;;
12852;SDS011;6495;51.808;7.478;2023-06-14T05:38:08;3.67;;;2.72;;
12852;SDS011;6495;51.808;7.478;2023-06-14T05:40:37;3.05;;;2.30;;
12852;SDS011;6495;51.808;7.478;2023-06-14T05:43:05;3.85;;;2.50;;
12852;SDS011;6495;51.808;7.478;2023-06-14T05:45:35;4.68;;;2.35;;
12852;SDS011;6495;51.808;7.478;2023-06-14T05:48:05;3.67;;;2.40;;
12852;SDS011;6495;51.808;7.478;2023-06-14T05:50:33;2.55;;;2.17;;
12852;SDS011;6495;51.808;7.478;2023-06-14T05:53:01;7.68;;;2.42;;
12852;SDS011;6495;51.808;7.478;2023-06-14T05:55:30;2.58;;;2.30;;
12852;SDS011;6495;51.808;7.478;2023-06-14T05:57:58;2.58;;;2.10;;
12852;SDS011;6495;51.808;7.478;2023-06-14T06:00:27;2.13;;;1.92;;
12852;SDS011;6495;51.808;7.478;2023-06-14T06:02:56;4.20;;;2.42;;
12852;SDS011;6495;51.808;7.478;2023-06-14T06:05:25;4.72;;;2.53;;
12852;SDS011;6495;51.808;7.478;2023-06-14T06:07:53;2.65;;;2.10;;
12852;SDS011;6495;51.808;7.478;2023-06-14T06:10:22;3.30;;;2.10;;
12852;SDS011;6495;51.808;7.478;2023-06-14T06:12:50;2.40;;;2.20;;
12852;SDS011;6495;51.808;7.478;2023-06-14T06:15:20;3.92;;;2.30;;
12852;SDS011;6495;51.808;7.478;2023-06-14T06:17:49;3.75;;;2.38;;
12852;SDS011;6495;51.808;7.478;2023-06-14T06:20:23;3.40;;;2.10;;
12852;SDS011;6495;51.808;7.478;2023-06-14T06:22:55;2.63;;;2.10;;
12852;SDS011;6495;51.808;7.478;2023-06-14T06:25:24;2.08;;;1.85;;
12852;SDS011;6495;51.808;7.478;2023-06-14T06:27:54;3.30;;;2.20;;
12852;SDS011;6495;51.808;7.478;2023-06-14T06:30:23;3.13;;;2.00;;
12852;SDS011;6495;51.808;7.478;2023-06-14T06:32:52;3.05;;;2.25;;
12852;SDS011;6495;51.808;7.478;2023-06-14T06:35:23;2.30;;;1.95;;
12852;SDS011;6495;51.808;7.478;2023-06-14T06:37:52;2.88;;;2.50;;
12852;SDS011;6495;51.808;7.478;2023-06-14T06:40:20;3.28;;;2.10;;
12852;SDS011;6495;51.808;7.478;2023-06-14T06:42:49;3.60;;;2.30;;
12852;SDS011;6495;51.808;7.478;2023-06-14T06:45:18;2.10;;;1.90;;
12852;SDS011;6495;51.808;7.478;2023-06-14T06:47:50;4.30;;;2.30;;
12852;SDS011;6495;51.808;7.478;2023-06-14T06:50:18;3.33;;;2.10;;
12852;SDS011;6495;51.808;7.478;2023-06-14T06:52:50;2.30;;;2.00;;
12852;SDS011;6495;51.808;7.478;2023-06-14T06:55:19;2.38;;;1.98;;
12852;SDS011;6495;51.808;7.478;2023-06-14T06:57:48;5.40;;;1.85;;
12852;SDS011;6495;51.808;7.478;2023-06-14T07:00:19;2.20;;;1.88;;
12852;SDS011;6495;51.808;7.478;2023-06-14T07:02:51;2.58;;;2.08;;
12852;SDS011;6495;51.808;7.478;2023-06-14T07:05:22;2.28;;;1.80;;
12852;SDS011;6495;51.808;7.478;2023-06-14T07:07:52;5.65;;;2.10;;
12852;SDS011;6495;51.808;7.478;2023-06-14T07:10:23;4.45;;;2.10;;
12852;SDS011;6495;51.808;7.478;2023-06-14T07:12:52;3.78;;;2.13;;
12852;SDS011;6495;51.808;7.478;2023-06-14T07:15:20;2.45;;;1.70;;
12852;SDS011;6495;51.808;7.478;2023-06-14T07:17:48;4.68;;;1.95;;
12852;SDS011;6495;51.808;7.478;2023-06-14T07:20:17;3.22;;;2.00;;
12852;SDS011;6495;51.808;7.478;2023-06-14T07:22:45;3.83;;;2.03;;
12852;SDS011;6495;51.808;7.478;2023-06-14T07:25:15;2.30;;;1.83;;
12852;SDS011;6495;51.808;7.478;2023-06-14T07:27:46;4.45;;;2.00;;
12852;SDS011;6495;51.808;7.478;2023-06-14T07:30:14;2.40;;;1.50;;
12852;SDS011;6495;51.808;7.478;2023-06-14T07:32:43;3.33;;;1.90;;
12852;SDS011;6495;51.808;7.478;2023-06-14T07:35:11;2.90;;;1.88;;
12852;SDS011;6495;51.808;7.478;2023-06-14T07:37:40;1.98;;;1.70;;
12852;SDS011;6495;51.808;7.478;2023-06-14T07:40:09;2.67;;;1.58;;
12852;SDS011;6495;51.808;7.478;2023-06-14T07:42:40;1.98;;;1.60;;
12852;SDS011;6495;51.808;7.478;2023-06-14T07:45:09;2.40;;;1.75;;
12852;SDS011;6495;51.808;7.478;2023-06-14T07:47:40;2.10;;;1.50;;
12852;SDS011;6495;51.808;7.478;2023-06-14T07:50:08;2.08;;;1.42;;
12852;SDS011;6495;51.808;7.478;2023-06-14T07:52:39;1.55;;;1.40;;
12852;SDS011;6495;51.808;7.478;2023-06-14T07:55:07;1.45;;;1.30;;
12852;SDS011;6495;51.808;7.478;2023-06-14T07:57:39;2.42;;;1.30;;
12852;SDS011;6495;51.808;7.478;2023-06-14T08:00:09;1.85;;;1.35;;
12852;SDS011;6495;51.808;7.478;2023-06-14T08:02:42;4.10;;;1.55;;
12852;SDS011;6495;51.808;7.478;2023-06-14T08:05:11;1.80;;;1.50;;
12852;SDS011;6495;51.808;7.478;2023-06-14T08:07:40;1.40;;;1.30;;
12852;SDS011;6495;51.808;7.478;2023-06-14T08:10:09;1.40;;;1.30;;
12852;SDS011;6495;51.808;7.478;2023-06-14T08:12:37;2.25;;;1.48;;
12852;SDS011;6495;51.808;7.478;2023-06-14T08:15:07;2.30;;;1.52;;
12852;SDS011;6495;51.808;7.478;2023-06-14T08:17:44;1.77;;;1.40;;
12852;SDS011;6495;51.808;7.478;2023-06-14T08:20:13;1.20;;;0.90;;
12852;SDS011;6495;51.808;7.478;2023-06-14T08:22:43;1.27;;;1.17;;
12852;SDS011;6495;51.808;7.478;2023-06-14T08:25:13;1.75;;;1.10;;
12852;SDS011;6495;51.808;7.478;2023-06-14T08:27:43;3.30;;;1.33;;
12852;SDS011;6495;51.808;7.478;2023-06-14T08:30:11;1.33;;;1.15;;
12852;SDS011;6495;51.808;7.478;2023-06-14T08:32:41;1.55;;;1.17;;
12852;SDS011;6495;51.808;7.478;2023-06-14T08:35:09;1.38;;;0.90;;
12852;SDS011;6495;51.808;7.478;2023-06-14T08:37:39;1.30;;;1.20;;
12852;SDS011;6495;51.808;7.478;2023-06-14T08:40:18;1.13;;;1.02;;
12852;SDS011;6495;51.808;7.478;2023-06-14T08:42:52;1.48;;;1.10;;
12852;SDS011;6495;51.808;7.478;2023-06-14T08:45:22;2.40;;;1.23;;
12852;SDS011;6495;51.808;7.478;2023-06-14T08:47:54;1.50;;;1.40;;
12852;SDS011;6495;51.808;7.478;2023-06-14T08:50:27;1.52;;;1.23;;
12852;SDS011;6495;51.808;7.478;2023-06-14T08:52:59;1.27;;;1.00;;
12852;SDS011;6495;51.808;7.478;2023-06-14T08:55:31;1.30;;;1.20;;
12852;SDS011;6495;51.808;7.478;2023-06-14T08:58:04;1.10;;;1.00;;
12852;SDS011;6495;51.808;7.478;2023-06-14T09:00:35;1.38;;;1.20;;
12852;SDS011;6495;51.808;7.478;2023-06-14T09:03:04;1.58;;;1.20;;
12852;SDS011;6495;51.808;7.478;2023-06-14T09:05:40;1.05;;;1.02;;
12852;SDS011;6495;51.808;7.478;2023-06-14T09:08:10;1.30;;;1.20;;
12852;SDS011;6495;51.808;7.478;2023-06-14T09:10:38;1.20;;;1.10;;
12852;SDS011;6495;51.808;7.478;2023-06-14T09:13:09;1.77;;;1.10;;
12852;SDS011;6495;51.808;7.478;2023-06-14T09:15:37;1.50;;;1.30;;
12852;SDS011;6495;51.808;7.478;2023-06-14T09:18:05;1.20;;;1.15;;
12852;SDS011;6495;51.808;7.478;2023-06-14T09:20:34;1.63;;;1.40;;
12852;SDS011;6495;51.808;7.478;2023-06-14T09:23:03;1.27;;;1.17;;
12852;SDS011;6495;51.808;7.478;2023-06-14T09:25:36;1.20;;;1.10;;
12852;SDS011;6495;51.808;7.478;2023-06-14T09:28:13;2.08;;;1.40;;
12852;SDS011;6495;51.808;7.478;2023-06-14T09:30:43;1.60;;;1.00;;
12852;SDS011;6495;51.808;7.478;2023-06-14T09:33:16;1.20;;;1.10;;
12852;SDS011;6495;51.808;7.478;2023-06-14T09:35:45;1.63;;;1.23;;
12852;SDS011;6495;51.808;7.478;2023-06-14T09:38:13;1.40;;;1.30;;
12852;SDS011;6495;51.808;7.478;2023-06-14T09:40:42;2.45;;;1.20;;
12852;SDS011;6495;51.808;7.478;2023-06-14T09:43:10;1.30;;;1.20;;
12852;SDS011;6495;51.808;7.478;2023-06-14T09:45:39;1.27;;;1.17;;
12852;SDS011;6495;51.808;7.478;2023-06-14T09:48:11;4.03;;;1.30;;
12852;SDS011;6495;51.808;7.478;2023-06-14T09:50:44;2.03;;;1.30;;
12852;SDS011;6495;51.808;7.478;2023-06-14T09:53:14;1.52;;;1.40;;
12852;SDS011;6495;51.808;7.478;2023-06-14T09:55:47;2.35;;;1.20;;
12852;SDS011;6495;51.808;7.478;2023-06-14T09:58:20;1.67;;;1.17;;
12852;SDS011;6495;51.808;7.478;2023-06-14T10:00:52;1.55;;;1.35;;
12852;SDS011;6495;51.808;7.478;2023-06-14T10:03:25;1.58;;;1.48;;
12852;SDS011;6495;51.808;7.478;2023-06-14T10:06:09;3.08;;;1.55;;
12852;SDS011;6495;51.808;7.478;2023-06-14T10:08:38;1.98;;;1.20;;
12852;SDS011;6495;51.808;7.478;2023-06-14T10:11:08;1.63;;;1.30;;
12852;SDS011;6495;51.808;7.478;2023-06-14T10:13:36;2.45;;;1.38;;
12852;SDS011;6495;51.808;7.478;2023-06-14T10:16:09;4.80;;;1.48;;
12852;SDS011;6495;51.808;7.478;2023-06-14T10:18:46;2.45;;;1.20;;
12852;SDS011;6495;51.808;7.478;2023-06-14T10:21:21;1.50;;;1.30;;
12852;SDS011;6495;51.808;7.478;2023-06-14T10:23:56;4.60;;;1.48;;
12852;SDS011;6495;51.808;7.478;2023-06-14T10:26:34;2.97;;;1.30;;
12852;SDS011;6495;51.808;7.478;2023-06-14T10:29:06;1.30;;;1.20;;
12852;SDS011;6495;51.808;7.478;2023-06-14T10:31:41;1.45;;;1.35;;
12852;SDS011;6495;51.808;7.478;2023-06-14T10:34:11;1.70;;;1.50;;
12852;SDS011;6495;51.808;7.478;2023-06-14T10:36:59;2.03;;;1.30;;
12852;SDS011;6495;51.808;7.478;2023-06-14T10:39:30;1.30;;;1.20;;
12852;SDS011;6495;51.808;7.478;2023-06-14T10:42:01;1.60;;;1.42;;
12852;SDS011;6495;51.808;7.478;2023-06-14T10:44:38;4.50;;;1.30;;
12852;SDS011;6495;51.808;7.478;2023-06-14T10:47:19;1.30;;;1.20;;
12852;SDS011;6495;51.808;7.478;2023-06-14T10:49:54;1.40;;;1.15;;
12852;SDS011;6495;51.808;7.478;2023-06-14T10:52:26;1.85;;;1.30;;
12852;SDS011;6495;51.808;7.478;2023-06-14T10:55:06;1.67;;;1.40;;
12852;SDS011;6495;51.808;7.478;2023-06-14T10:57:43;1.42;;;1.30;;
12852;SDS011;6495;51.808;7.478;2023-06-14T11:00:18;2.67;;;1.45;;
12852;SDS011;6495;51.808;7.478;2023-06-14T11:03:14;2.95;;;1.50;;
12852;SDS011;6495;51.808;7.478;2023-06-14T11:06:12;2.97;;;1.45;;
12852;SDS011;6495;51.808;7.478;2023-06-14T11:12:11;1.65;;;1.50;;
12852;SDS011;6495;51.808;7.478;2023-06-14T11:14:41;3.30;;;1.20;;
12852;SDS011;6495;51.808;7.478;2023-06-14T11:17:12;1.50;;;1.40;;
12852;SDS011;6495;51.808;7.478;2023-06-14T11:19:43;1.75;;;1.63;;
12852;SDS011;6495;51.808;7.478;2023-06-14T11:22:11;1.40;;;1.30;;
12852;SDS011;6495;51.808;7.478;2023-06-14T11:24:42;2.65;;;1.40;;
12852;SDS011;6495;51.808;7.478;2023-06-14T11:27:11;1.65;;;1.38;;
12852;SDS011;6495;51.808;7.478;2023-06-14T11:29:47;2.92;;;1.48;;
12852;SDS011;6495;51.808;7.478;2023-06-14T11:32:16;1.63;;;1.40;;
12852;SDS011;6495;51.808;7.478;2023-06-14T11:34:47;1.90;;;1.60;;
12852;SDS011;6495;51.808;7.478;2023-06-14T11:37:15;1.42;;;1.33;;
12852;SDS011;6495;51.808;7.478;2023-06-14T11:39:43;1.42;;;1.27;;
12852;SDS011;6495;51.808;7.478;2023-06-14T11:42:13;3.00;;;1.40;;
12852;SDS011;6495;51.808;7.478;2023-06-14T11:44:45;1.83;;;1.40;;
12852;SDS011;6495;51.808;7.478;2023-06-14T11:47:14;1.60;;;1.50;;
12852;SDS011;6495;51.808;7.478;2023-06-14T11:49:42;2.53;;;2.00;;
12852;SDS011;6495;51.808;7.478;2023-06-14T11:52:12;1.75;;;1.50;;
12852;SDS011;6495;51.808;7.478;2023-06-14T11:54:41;1.70;;;1.60;;
12852;SDS011;6495;51.808;7.478;2023-06-14T11:57:09;4.43;;;1.73;;
12852;SDS011;6495;51.808;7.478;2023-06-14T11:59:38;2.92;;;1.67;;
12852;SDS011;6495;51.808;7.478;2023-06-14T12:02:07;1.70;;;1.60;;
12852;SDS011;6495;51.808;7.478;2023-06-14T12:04:35;1.50;;;1.40;;
12852;SDS011;6495;51.808;7.478;2023-06-14T12:07:10;2.78;;;1.45;;
12852;SDS011;6495;51.808;7.478;2023-06-14T12:12:35;2.95;;;1.83;;
12852;SDS011;6495;51.808;7.478;2023-06-14T12:15:05;2.38;;;1.80;;
12852;SDS011;6495;51.808;7.478;2023-06-14T12:17:36;1.73;;;1.63;;
12852;SDS011;6495;51.808;7.478;2023-06-14T12:20:08;2.40;;;1.75;;
12852;SDS011;6495;51.808;7.478;2023-06-14T12:22:50;2.88;;;1.92;;
12852;SDS011;6495;51.808;7.478;2023-06-14T12:25:23;2.90;;;1.73;;
12852;SDS011;6495;51.808;7.478;2023-06-14T12:27:56;2.10;;;1.63;;
12852;SDS011;6495;51.808;7.478;2023-06-14T12:30:24;3.22;;;1.80;;
12852;SDS011;6495;51.808;7.478;2023-06-14T12:32:53;4.65;;;2.03;;
12852;SDS011;6495;51.808;7.478;2023-06-14T12:35:22;5.05;;;2.50;;
12852;SDS011;6495;51.808;7.478;2023-06-14T12:37:51;2.28;;;2.08;;
12852;SDS011;6495;51.808;7.478;2023-06-14T12:40:21;2.25;;;1.95;;
12852;SDS011;6495;51.808;7.478;2023-06-14T12:42:49;2.45;;;1.90;;
12852;SDS011;6495;51.808;7.478;2023-06-14T12:45:18;1.95;;;1.77;;
12852;SDS011;6495;51.808;7.478;2023-06-14T12:47:46;2.53;;;1.98;;
12852;SDS011;6495;51.808;7.478;2023-06-14T12:50:15;2.10;;;1.90;;
12852;SDS011;6495;51.808;7.478;2023-06-14T12:52:43;1.90;;;1.80;;
12852;SDS011;6495;51.808;7.478;2023-06-14T12:55:13;2.35;;;2.15;;
12852;SDS011;6495;51.808;7.478;2023-06-14T12:57:41;3.05;;;2.03;;
12852;SDS011;6495;51.808;7.478;2023-06-14T13:00:10;3.08;;;2.03;;
12852;SDS011;6495;51.808;7.478;2023-06-14T13:02:40;2.10;;;1.90;;
12852;SDS011;6495;51.808;7.478;2023-06-14T13:05:08;2.90;;;2.08;;
12852;SDS011;6495;51.808;7.478;2023-06-14T13:07:37;2.72;;;1.98;;
12852;SDS011;6495;51.808;7.478;2023-06-14T13:10:05;1.98;;;1.83;;
12852;SDS011;6495;51.808;7.478;2023-06-14T13:12:36;1.88;;;1.77;;
12852;SDS011;6495;51.808;7.478;2023-06-14T13:15:04;2.38;;;2.15;;
12852;SDS011;6495;51.808;7.478;2023-06-14T13:17:34;2.33;;;2.13;;
12852;SDS011;6495;51.808;7.478;2023-06-14T13:20:05;2.53;;;1.58;;
12852;SDS011;6495;51.808;7.478;2023-06-14T13:22:34;2.22;;;2.03;;
12852;SDS011;6495;51.808;7.478;2023-06-14T13:25:03;2.63;;;2.20;;
12852;SDS011;6495;51.808;7.478;2023-06-14T13:27:32;1.70;;;1.60;;
12852;SDS011;6495;51.808;7.478;2023-06-14T13:30:02;2.00;;;1.90;;
12852;SDS011;6495;51.808;7.478;2023-06-14T13:32:33;2.15;;;1.95;;
12852;SDS011;6495;51.808;7.478;2023-06-14T13:35:01;3.25;;;1.85;;
12852;SDS011;6495;51.808;7.478;2023-06-14T13:37:30;6.20;;;2.15;;
12852;SDS011;6495;51.808;7.478;2023-06-14T13:39:58;3.33;;;2.22;;
12852;SDS011;6495;51.808;7.478;2023-06-14T13:42:27;1.88;;;1.70;;
12852;SDS011;6495;51.808;7.478;2023-06-14T13:44:58;2.15;;;1.88;;
12852;SDS011;6495;51.808;7.478;2023-06-14T13:47:27;2.13;;;1.95;;
12852;SDS011;6495;51.808;7.478;2023-06-14T13:49:56;2.28;;;2.08;;
12852;SDS011;6495;51.808;7.478;2023-06-14T13:52:24;3.47;;;2.00;;
12852;SDS011;6495;51.808;7.478;2023-06-14T13:54:53;2.00;;;1.90;;
12852;SDS011;6495;51.808;7.478;2023-06-14T13:57:21;2.55;;;2.00;;
12852;SDS011;6495;51.808;7.478;2023-06-14T13:59:50;2.67;;;2.20;;
12852;SDS011;6495;51.808;7.478;2023-06-14T14:02:19;2.22;;;2.03;;
12852;SDS011;6495;51.808;7.478;2023-06-14T14:04:49;2.15;;;1.92;;
12852;SDS011;6495;51.808;7.478;2023-06-14T14:07:20;2.15;;;1.95;;
12852;SDS011;6495;51.808;7.478;2023-06-14T14:09:48;2.55;;;2.10;;
12852;SDS011;6495;51.808;7.478;2023-06-14T14:12:16;4.68;;;2.10;;
12852;SDS011;6495;51.808;7.478;2023-06-14T14:14:45;2.88;;;2.30;;
12852;SDS011;6495;51.808;7.478;2023-06-14T14:17:13;2.30;;;2.05;;
12852;SDS011;6495;51.808;7.478;2023-06-14T14:19:42;2.47;;;1.88;;
12852;SDS011;6495;51.808;7.478;2023-06-14T14:22:11;2.00;;;1.90;;
12852;SDS011;6495;51.808;7.478;2023-06-14T14:24:39;2.67;;;2.20;;
12852;SDS011;6495;51.808;7.478;2023-06-14T14:27:08;1.90;;;1.80;;
12852;SDS011;6495;51.808;7.478;2023-06-14T14:29:38;3.45;;;2.03;;
12852;SDS011;6495;51.808;7.478;2023-06-14T14:32:06;2.25;;;2.05;;
12852;SDS011;6495;51.808;7.478;2023-06-14T14:34:39;2.50;;;2.30;;
12852;SDS011;6495;51.808;7.478;2023-06-14T14:37:08;2.10;;;1.90;;
12852;SDS011;6495;51.808;7.478;2023-06-14T14:39:39;2.50;;;2.30;;
12852;SDS011;6495;51.808;7.478;2023-06-14T14:42:07;2.28;;;1.90;;
12852;SDS011;6495;51.808;7.478;2023-06-14T14:44:37;2.55;;;2.08;;
12852;SDS011;6495;51.808;7.478;2023-06-14T14:47:05;2.25;;;2.10;;
12852;SDS011;6495;51.808;7.478;2023-06-14T14:49:36;12.65;;;2.70;;
12852;SDS011;6495;51.808;7.478;2023-06-14T14:52:04;2.22;;;2.08;;
12852;SDS011;6495;51.808;7.478;2023-06-14T14:54:50;3.15;;;2.50;;
12852;SDS011;6495;51.808;7.478;2023-06-14T14:57:19;2.33;;;1.90;;
12852;SDS011;6495;51.808;7.478;2023-06-14T14:59:48;2.17;;;2.00;;
12852;SDS011;6495;51.808;7.478;2023-06-14T15:02:17;2.50;;;2.10;;
12852;SDS011;6495;51.808;7.478;2023-06-14T15:04:46;2.33;;;1.95;;
12852;SDS011;6495;51.808;7.478;2023-06-14T15:07:14;3.05;;;2.05;;
12852;SDS011;6495;51.808;7.478;2023-06-14T15:09:42;2.35;;;2.13;;
12852;SDS011;6495;51.808;7.478;2023-06-14T15:12:12;2.60;;;1.70;;
12852;SDS011;6495;51.808;7.478;2023-06-14T15:14:40;2.15;;;1.95;;
12852;SDS011;6495;51.808;7.478;2023-06-14T15:17:09;3.00;;;1.88;;
12852;SDS011;6495;51.808;7.478;2023-06-14T15:19:37;2.10;;;1.90;;
12852;SDS011;6495;51.808;7.478;2023-06-14T15:22:05;5.20;;;2.35;;
12852;SDS011;6495;51.808;7.478;2023-06-14T15:24:34;4.40;;;2.17;;
12852;SDS011;6495;51.808;7.478;2023-06-14T15:27:09;2.83;;;2.25;;